sensor_id;sensor_type;location;lat;lon;timestamp;temperature;humidity
77052;SHT30;65980;44.898;8.602;2023-11-18T00:00:42;6.24;69.35
77052;SHT30;65980;44.898;8.602;2023-11-18T00:03:51;6.49;68.28
77052;SHT30;65980;44.898;8.602;2023-11-18T00:07:01;6.35;67.44
77052;SHT30;65980;44.898;8.602;2023-11-18T00:10:14;6.45;68.44
77052;SHT30;65980;44.898;8.602;2023-11-18T00:13:27;6.58;67.81
77052;SHT30;65980;44.898;8.602;2023-11-18T00:16:38;6.68;66.74
77052;SHT30;65980;44.898;8.602;2023-11-18T00:19:42;6.77;66.83
77052;SHT30;65980;44.898;8.602;2023-11-18T00:22:48;6.80;66.35
77052;SHT30;65980;44.898;8.602;2023-11-18T00:25:56;6.71;67.32
77052;SHT30;65980;44.898;8.602;2023-11-18T00:29:04;6.25;69.50
77052;SHT30;65980;44.898;8.602;2023-11-18T00:32:09;6.37;68.60
77052;SHT30;65980;44.898;8.602;2023-11-18T00:35:14;6.14;69.61
77052;SHT30;65980;44.898;8.602;2023-11-18T00:38:19;6.17;69.76
77052;SHT30;65980;44.898;8.602;2023-11-18T00:41:24;6.27;69.14
77052;SHT30;65980;44.898;8.602;2023-11-18T00:44:29;6.35;67.20
77052;SHT30;65980;44.898;8.602;2023-11-18T00:47:34;6.46;66.88
77052;SHT30;65980;44.898;8.602;2023-11-18T00:50:38;6.56;66.09
77052;SHT30;65980;44.898;8.602;2023-11-18T00:53:44;5.76;69.20
77052;SHT30;65980;44.898;8.602;2023-11-18T00:56:49;5.85;69.21
77052;SHT30;65980;44.898;8.602;2023-11-18T00:59:54;5.99;69.08
77052;SHT30;65980;44.898;8.602;2023-11-18T01:02:59;6.13;68.84
77052;SHT30;65980;44.898;8.602;2023-11-18T01:06:04;6.02;69.18
77052;SHT30;65980;44.898;8.602;2023-11-18T01:09:10;5.77;70.17
77052;SHT30;65980;44.898;8.602;2023-11-18T01:12:15;6.07;69.31
77052;SHT30;65980;44.898;8.602;2023-11-18T01:15:19;6.25;67.32
77052;SHT30;65980;44.898;8.602;2023-11-18T01:18:26;5.94;69.56
77052;SHT30;65980;44.898;8.602;2023-11-18T01:21:30;5.70;68.76
77052;SHT30;65980;44.898;8.602;2023-11-18T01:24:35;5.94;68.20
77052;SHT30;65980;44.898;8.602;2023-11-18T01:27:40;5.65;68.36
77052;SHT30;65980;44.898;8.602;2023-11-18T01:30:45;5.79;67.70
77052;SHT30;65980;44.898;8.602;2023-11-18T01:33:49;5.97;67.12
77052;SHT30;65980;44.898;8.602;2023-11-18T01:36:54;6.03;67.24
77052;SHT30;65980;44.898;8.602;2023-11-18T01:39:58;6.31;66.21
77052;SHT30;65980;44.898;8.602;2023-11-18T01:43:02;6.31;66.26
77052;SHT30;65980;44.898;8.602;2023-11-18T01:46:09;6.31;66.98
77052;SHT30;65980;44.898;8.602;2023-11-18T01:49:14;6.28;66.43
77052;SHT30;65980;44.898;8.602;2023-11-18T01:52:19;5.97;67.70
77052;SHT30;65980;44.898;8.602;2023-11-18T01:55:25;5.94;68.82
77052;SHT30;65980;44.898;8.602;2023-11-18T01:58:33;6.13;66.96
77052;SHT30;65980;44.898;8.602;2023-11-18T02:01:41;6.30;66.82
77052;SHT30;65980;44.898;8.602;2023-11-18T02:04:47;6.44;65.64
77052;SHT30;65980;44.898;8.602;2023-11-18T02:07:52;6.18;67.18
77052;SHT30;65980;44.898;8.602;2023-11-18T02:11:04;5.97;68.71
77052;SHT30;65980;44.898;8.602;2023-11-18T02:14:17;6.09;67.94
77052;SHT30;65980;44.898;8.602;2023-11-18T02:17:23;6.18;68.20
77052;SHT30;65980;44.898;8.602;2023-11-18T02:20:30;6.32;67.23
77052;SHT30;65980;44.898;8.602;2023-11-18T02:23:34;6.37;67.00
77052;SHT30;65980;44.898;8.602;2023-11-18T02:26:42;6.17;67.14
77052;SHT30;65980;44.898;8.602;2023-11-18T02:29:47;5.99;67.79
77052;SHT30;65980;44.898;8.602;2023-11-18T02:33:02;5.99;68.64
77052;SHT30;65980;44.898;8.602;2023-11-18T02:36:13;6.13;67.76
77052;SHT30;65980;44.898;8.602;2023-11-18T02:39:25;6.03;68.45
77052;SHT30;65980;44.898;8.602;2023-11-18T02:42:39;5.73;68.91
77052;SHT30;65980;44.898;8.602;2023-11-18T02:45:47;5.35;70.69
77052;SHT30;65980;44.898;8.602;2023-11-18T02:48:56;4.89;73.17
77052;SHT30;65980;44.898;8.602;2023-11-18T02:52:07;4.92;73.90
77052;SHT30;65980;44.898;8.602;2023-11-18T02:55:14;5.01;73.94
77052;SHT30;65980;44.898;8.602;2023-11-18T02:58:20;5.28;72.04
77052;SHT30;65980;44.898;8.602;2023-11-18T03:01:25;5.00;73.03
77052;SHT30;65980;44.898;8.602;2023-11-18T03:04:31;5.27;71.61
77052;SHT30;65980;44.898;8.602;2023-11-18T03:07:35;5.32;71.95
77052;SHT30;65980;44.898;8.602;2023-11-18T03:10:42;5.16;72.41
77052;SHT30;65980;44.898;8.602;2023-11-18T03:14:21;5.14;72.91
77052;SHT30;65980;44.898;8.602;2023-11-18T03:17:28;5.24;73.20
77052;SHT30;65980;44.898;8.602;2023-11-18T03:20:33;5.49;71.50
77052;SHT30;65980;44.898;8.602;2023-11-18T03:23:40;5.58;70.71
77052;SHT30;65980;44.898;8.602;2023-11-18T03:26:46;5.65;69.70
77052;SHT30;65980;44.898;8.602;2023-11-18T03:29:50;5.35;70.42
77052;SHT30;65980;44.898;8.602;2023-11-18T03:33:03;5.27;70.71
77052;SHT30;65980;44.898;8.602;2023-11-18T03:36:13;5.45;70.72
77052;SHT30;65980;44.898;8.602;2023-11-18T03:39:24;5.58;69.60
77052;SHT30;65980;44.898;8.602;2023-11-18T03:42:29;5.58;69.29
77052;SHT30;65980;44.898;8.602;2023-11-18T03:45:41;5.38;70.67
77052;SHT30;65980;44.898;8.602;2023-11-18T03:49:10;5.04;70.57
77052;SHT30;65980;44.898;8.602;2023-11-18T03:52:23;5.20;71.04
77052;SHT30;65980;44.898;8.602;2023-11-18T03:55:39;5.12;70.28
77052;SHT30;65980;44.898;8.602;2023-11-18T03:58:53;5.14;70.81
77052;SHT30;65980;44.898;8.602;2023-11-18T04:01:58;4.59;72.32
77052;SHT30;65980;44.898;8.602;2023-11-18T04:05:04;4.11;74.38
77052;SHT30;65980;44.898;8.602;2023-11-18T04:08:09;4.02;75.40
77052;SHT30;65980;44.898;8.602;2023-11-18T04:11:21;4.13;75.83
77052;SHT30;65980;44.898;8.602;2023-11-18T04:14:29;4.23;75.68
77052;SHT30;65980;44.898;8.602;2023-11-18T04:17:36;4.21;75.65
77052;SHT30;65980;44.898;8.602;2023-11-18T04:20:42;4.23;75.68
77052;SHT30;65980;44.898;8.602;2023-11-18T04:23:47;4.23;75.82
77052;SHT30;65980;44.898;8.602;2023-11-18T04:26:53;4.10;76.04
77052;SHT30;65980;44.898;8.602;2023-11-18T04:30:03;3.86;76.61
77052;SHT30;65980;44.898;8.602;2023-11-18T04:33:15;3.99;76.01
77052;SHT30;65980;44.898;8.602;2023-11-18T04:36:19;4.02;75.33
77052;SHT30;65980;44.898;8.602;2023-11-18T04:39:49;3.82;76.51
77052;SHT30;65980;44.898;8.602;2023-11-18T04:42:57;3.62;77.07
77052;SHT30;65980;44.898;8.602;2023-11-18T04:46:08;3.68;76.89
77052;SHT30;65980;44.898;8.602;2023-11-18T04:49:12;3.89;76.67
77052;SHT30;65980;44.898;8.602;2023-11-18T04:52:19;3.85;75.88
77052;SHT30;65980;44.898;8.602;2023-11-18T04:55:27;3.54;76.78
77052;SHT30;65980;44.898;8.602;2023-11-18T04:58:31;3.68;76.42
77052;SHT30;65980;44.898;8.602;2023-11-18T05:01:41;3.57;76.64
77052;SHT30;65980;44.898;8.602;2023-11-18T05:04:46;3.61;76.56
77052;SHT30;65980;44.898;8.602;2023-11-18T05:07:51;3.58;76.68
77052;SHT30;65980;44.898;8.602;2023-11-18T05:10:55;3.65;76.77
77052;SHT30;65980;44.898;8.602;2023-11-18T05:14:05;3.78;75.95
77052;SHT30;65980;44.898;8.602;2023-11-18T05:17:17;3.79;76.61
77052;SHT30;65980;44.898;8.602;2023-11-18T05:20:21;3.76;75.99
77052;SHT30;65980;44.898;8.602;2023-11-18T05:23:29;3.75;76.45
77052;SHT30;65980;44.898;8.602;2023-11-18T05:26:33;3.59;77.33
77052;SHT30;65980;44.898;8.602;2023-11-18T05:29:46;3.58;76.90
77052;SHT30;65980;44.898;8.602;2023-11-18T05:33:09;3.58;77.33
77052;SHT30;65980;44.898;8.602;2023-11-18T05:36:19;3.69;76.61
77052;SHT30;65980;44.898;8.602;2023-11-18T05:39:37;3.76;76.67
77052;SHT30;65980;44.898;8.602;2023-11-18T05:42:56;3.58;76.38
77052;SHT30;65980;44.898;8.602;2023-11-18T05:46:04;3.89;75.65
77052;SHT30;65980;44.898;8.602;2023-11-18T05:50:09;4.03;74.83
77052;SHT30;65980;44.898;8.602;2023-11-18T05:53:17;4.00;74.88
77052;SHT30;65980;44.898;8.602;2023-11-18T05:56:25;3.83;74.95
77052;SHT30;65980;44.898;8.602;2023-11-18T05:59:33;3.97;74.05
77052;SHT30;65980;44.898;8.602;2023-11-18T06:02:39;3.83;74.78
77052;SHT30;65980;44.898;8.602;2023-11-18T06:05:52;3.86;74.81
77052;SHT30;65980;44.898;8.602;2023-11-18T06:09:05;3.35;75.69
77052;SHT30;65980;44.898;8.602;2023-11-18T06:12:20;3.20;77.58
77052;SHT30;65980;44.898;8.602;2023-11-18T06:15:26;3.21;77.53
77052;SHT30;65980;44.898;8.602;2023-11-18T06:18:35;3.12;77.08
77052;SHT30;65980;44.898;8.602;2023-11-18T06:21:41;3.19;77.90
77052;SHT30;65980;44.898;8.602;2023-11-18T06:24:46;3.09;78.15
77052;SHT30;65980;44.898;8.602;2023-11-18T06:27:54;3.44;77.82
77052;SHT30;65980;44.898;8.602;2023-11-18T06:31:01;3.61;76.23
77052;SHT30;65980;44.898;8.602;2023-11-18T06:34:06;3.68;75.28
77052;SHT30;65980;44.898;8.602;2023-11-18T06:37:13;3.62;76.09
77052;SHT30;65980;44.898;8.602;2023-11-18T06:40:32;3.64;76.13
77052;SHT30;65980;44.898;8.602;2023-11-18T06:43:48;3.51;76.48
77052;SHT30;65980;44.898;8.602;2023-11-18T06:47:09;4.13;73.60
77052;SHT30;65980;44.898;8.602;2023-11-18T06:50:26;4.54;71.74
77052;SHT30;65980;44.898;8.602;2023-11-18T06:53:31;4.89;70.87
77052;SHT30;65980;44.898;8.602;2023-11-18T06:56:39;5.24;69.88
77052;SHT30;65980;44.898;8.602;2023-11-18T06:59:55;5.86;67.64
77052;SHT30;65980;44.898;8.602;2023-11-18T07:02:58;5.85;67.00
77052;SHT30;65980;44.898;8.602;2023-11-18T07:06:16;5.76;68.16
77052;SHT30;65980;44.898;8.602;2023-11-18T07:09:30;5.76;67.68
77052;SHT30;65980;44.898;8.602;2023-11-18T07:12:45;5.77;66.63
77052;SHT30;65980;44.898;8.602;2023-11-18T07:16:02;6.30;64.80
77052;SHT30;65980;44.898;8.602;2023-11-18T07:19:10;6.24;64.65
77052;SHT30;65980;44.898;8.602;2023-11-18T07:22:29;8.14;59.88
77052;SHT30;65980;44.898;8.602;2023-11-18T07:25:40;10.01;54.96
77052;SHT30;65980;44.898;8.602;2023-11-18T07:28:59;9.98;53.30
77052;SHT30;65980;44.898;8.602;2023-11-18T07:32:04;9.48;54.74
77052;SHT30;65980;44.898;8.602;2023-11-18T07:35:09;8.83;56.13
77052;SHT30;65980;44.898;8.602;2023-11-18T07:38:17;7.47;59.88
77052;SHT30;65980;44.898;8.602;2023-11-18T07:41:27;7.39;61.24
77052;SHT30;65980;44.898;8.602;2023-11-18T07:44:32;8.31;58.80
77052;SHT30;65980;44.898;8.602;2023-11-18T07:47:44;8.30;57.76
77052;SHT30;65980;44.898;8.602;2023-11-18T07:50:55;8.31;58.09
77052;SHT30;65980;44.898;8.602;2023-11-18T07:54:04;8.52;58.53
77052;SHT30;65980;44.898;8.602;2023-11-18T07:57:09;8.90;57.75
77052;SHT30;65980;44.898;8.602;2023-11-18T08:00:23;8.99;56.37
77052;SHT30;65980;44.898;8.602;2023-11-18T08:03:37;8.67;57.96
77052;SHT30;65980;44.898;8.602;2023-11-18T08:06:52;8.77;58.79
77052;SHT30;65980;44.898;8.602;2023-11-18T08:09:58;9.60;55.92
77052;SHT30;65980;44.898;8.602;2023-11-18T08:13:01;9.53;56.82
77052;SHT30;65980;44.898;8.602;2023-11-18T08:16:06;10.73;52.17
77052;SHT30;65980;44.898;8.602;2023-11-18T08:19:17;11.42;49.87
77052;SHT30;65980;44.898;8.602;2023-11-18T08:22:22;11.34;50.52
77052;SHT30;65980;44.898;8.602;2023-11-18T08:25:27;11.76;49.67
77052;SHT30;65980;44.898;8.602;2023-11-18T08:28:31;12.10;47.49
77052;SHT30;65980;44.898;8.602;2023-11-18T08:31:38;11.25;49.94
77052;SHT30;65980;44.898;8.602;2023-11-18T08:34:50;11.55;50.92
77052;SHT30;65980;44.898;8.602;2023-11-18T08:38:05;13.28;45.57
77052;SHT30;65980;44.898;8.602;2023-11-18T08:41:12;14.06;44.07
77052;SHT30;65980;44.898;8.602;2023-11-18T08:44:43;13.77;45.26
77052;SHT30;65980;44.898;8.602;2023-11-18T08:48:22;14.76;42.61
77052;SHT30;65980;44.898;8.602;2023-11-18T08:51:52;13.48;44.58
77052;SHT30;65980;44.898;8.602;2023-11-18T08:55:11;13.18;44.59
77052;SHT30;65980;44.898;8.602;2023-11-18T08:58:36;12.79;45.30
77052;SHT30;65980;44.898;8.602;2023-11-18T09:01:42;11.46;49.08
77052;SHT30;65980;44.898;8.602;2023-11-18T09:04:50;11.21;51.01
77052;SHT30;65980;44.898;8.602;2023-11-18T09:07:55;10.96;51.32
77052;SHT30;65980;44.898;8.602;2023-11-18T09:11:34;11.28;50.98
77052;SHT30;65980;44.898;8.602;2023-11-18T09:14:40;12.59;47.55
77052;SHT30;65980;44.898;8.602;2023-11-18T09:18:45;13.04;46.08
77052;SHT30;65980;44.898;8.602;2023-11-18T09:21:56;11.18;50.93
77052;SHT30;65980;44.898;8.602;2023-11-18T09:25:11;10.37;52.74
77052;SHT30;65980;44.898;8.602;2023-11-18T09:28:16;10.35;54.41
77052;SHT30;65980;44.898;8.602;2023-11-18T09:31:21;10.73;52.92
77052;SHT30;65980;44.898;8.602;2023-11-18T09:34:26;11.28;51.03
77052;SHT30;65980;44.898;8.602;2023-11-18T09:41:39;11.55;50.36
77052;SHT30;65980;44.898;8.602;2023-11-18T09:44:44;10.92;52.05
77052;SHT30;65980;44.898;8.602;2023-11-18T09:48:19;10.55;53.38
77052;SHT30;65980;44.898;8.602;2023-11-18T09:51:41;10.72;53.42
77052;SHT30;65980;44.898;8.602;2023-11-18T09:55:04;10.84;52.54
77052;SHT30;65980;44.898;8.602;2023-11-18T09:58:19;10.53;53.90
77052;SHT30;65980;44.898;8.602;2023-11-18T10:01:57;10.79;54.58
77052;SHT30;65980;44.898;8.602;2023-11-18T10:05:06;11.12;53.39
77052;SHT30;65980;44.898;8.602;2023-11-18T10:08:43;11.14;53.91
77052;SHT30;65980;44.898;8.602;2023-11-18T10:12:14;11.01;52.72
77052;SHT30;65980;44.898;8.602;2023-11-18T10:16:16;11.86;52.44
77052;SHT30;65980;44.898;8.602;2023-11-18T10:19:24;11.62;53.00
77052;SHT30;65980;44.898;8.602;2023-11-18T10:22:30;11.83;52.61
77052;SHT30;65980;44.898;8.602;2023-11-18T10:26:30;11.95;51.38
77052;SHT30;65980;44.898;8.602;2023-11-18T10:29:37;11.63;52.36
77052;SHT30;65980;44.898;8.602;2023-11-18T10:33:07;11.91;51.67
77052;SHT30;65980;44.898;8.602;2023-11-18T10:40:09;12.39;51.06
77052;SHT30;65980;44.898;8.602;2023-11-18T10:43:45;12.75;50.88
77052;SHT30;65980;44.898;8.602;2023-11-18T10:46:52;12.89;50.43
77052;SHT30;65980;44.898;8.602;2023-11-18T10:49:56;12.80;50.05
77052;SHT30;65980;44.898;8.602;2023-11-18T10:53:26;12.79;50.40
77052;SHT30;65980;44.898;8.602;2023-11-18T10:56:32;12.83;49.88
77052;SHT30;65980;44.898;8.602;2023-11-18T11:00:05;12.90;50.74
77052;SHT30;65980;44.898;8.602;2023-11-18T11:03:55;12.99;50.23
77052;SHT30;65980;44.898;8.602;2023-11-18T11:07:12;13.70;47.47
77052;SHT30;65980;44.898;8.602;2023-11-18T11:14:34;14.49;45.69
77052;SHT30;65980;44.898;8.602;2023-11-18T11:18:11;14.52;45.36
77052;SHT30;65980;44.898;8.602;2023-11-18T11:21:43;14.86;46.22
77052;SHT30;65980;44.898;8.602;2023-11-18T11:25:46;15.74;43.81
77052;SHT30;65980;44.898;8.602;2023-11-18T11:35:56;17.04;42.14
77052;SHT30;65980;44.898;8.602;2023-11-18T11:39:10;16.73;40.66
77052;SHT30;65980;44.898;8.602;2023-11-18T11:42:32;17.51;41.17
77052;SHT30;65980;44.898;8.602;2023-11-18T11:45:37;18.04;40.06
77052;SHT30;65980;44.898;8.602;2023-11-18T11:48:50;18.10;38.85
77052;SHT30;65980;44.898;8.602;2023-11-18T11:52:34;19.39;36.59
77052;SHT30;65980;44.898;8.602;2023-11-18T11:55:47;19.89;35.78
77052;SHT30;65980;44.898;8.602;2023-11-18T11:59:01;20.89;34.04
77052;SHT30;65980;44.898;8.602;2023-11-18T12:02:11;21.42;33.11
77052;SHT30;65980;44.898;8.602;2023-11-18T12:05:30;21.45;32.86
77052;SHT30;65980;44.898;8.602;2023-11-18T12:08:46;20.41;34.62
77052;SHT30;65980;44.898;8.602;2023-11-18T12:11:54;20.53;33.32
77052;SHT30;65980;44.898;8.602;2023-11-18T12:15:05;20.32;32.42
77052;SHT30;65980;44.898;8.602;2023-11-18T12:18:28;20.61;32.45
77052;SHT30;65980;44.898;8.602;2023-11-18T12:21:57;20.87;34.13
77052;SHT30;65980;44.898;8.602;2023-11-18T12:26:37;21.59;31.59
77052;SHT30;65980;44.898;8.602;2023-11-18T12:29:32;20.90;32.23
77052;SHT30;65980;44.898;8.602;2023-11-18T12:33:04;19.72;35.01
77052;SHT30;65980;44.898;8.602;2023-11-18T12:40:15;19.03;34.73
77052;SHT30;65980;44.898;8.602;2023-11-18T12:44:10;17.63;37.21
77052;SHT30;65980;44.898;8.602;2023-11-18T12:47:49;16.86;39.41
77052;SHT30;65980;44.898;8.602;2023-11-18T12:51:06;17.59;38.52
77052;SHT30;65980;44.898;8.602;2023-11-18T12:54:23;18.23;36.84
77052;SHT30;65980;44.898;8.602;2023-11-18T12:58:03;18.18;36.02
77052;SHT30;65980;44.898;8.602;2023-11-18T13:01:22;17.85;37.70
77052;SHT30;65980;44.898;8.602;2023-11-18T13:04:28;18.42;36.30
77052;SHT30;65980;44.898;8.602;2023-11-18T13:07:32;19.20;35.85
77052;SHT30;65980;44.898;8.602;2023-11-18T13:10:48;19.54;34.40
77052;SHT30;65980;44.898;8.602;2023-11-18T13:13:54;18.66;35.13
77052;SHT30;65980;44.898;8.602;2023-11-18T13:17:04;17.56;34.75
77052;SHT30;65980;44.898;8.602;2023-11-18T13:20:35;16.76;37.62
77052;SHT30;65980;44.898;8.602;2023-11-18T13:23:47;17.14;36.88
77052;SHT30;65980;44.898;8.602;2023-11-18T13:26:57;17.56;35.90
77052;SHT30;65980;44.898;8.602;2023-11-18T13:30:36;18.08;34.17
77052;SHT30;65980;44.898;8.602;2023-11-18T13:33:48;19.03;31.65
77052;SHT30;65980;44.898;8.602;2023-11-18T13:36:55;19.39;30.51
77052;SHT30;65980;44.898;8.602;2023-11-18T13:40:00;19.04;30.57
77052;SHT30;65980;44.898;8.602;2023-11-18T13:43:09;18.52;32.53
77052;SHT30;65980;44.898;8.602;2023-11-18T13:46:18;18.00;32.33
77052;SHT30;65980;44.898;8.602;2023-11-18T13:49:58;17.39;35.15
77052;SHT30;65980;44.898;8.602;2023-11-18T13:53:24;16.93;36.01
77052;SHT30;65980;44.898;8.602;2023-11-18T13:56:43;16.56;37.02
77052;SHT30;65980;44.898;8.602;2023-11-18T14:00:00;16.41;39.33
77052;SHT30;65980;44.898;8.602;2023-11-18T14:03:10;16.13;36.64
77052;SHT30;65980;44.898;8.602;2023-11-18T14:06:30;15.90;38.32
77052;SHT30;65980;44.898;8.602;2023-11-18T14:09:36;15.78;39.05
77052;SHT30;65980;44.898;8.602;2023-11-18T14:13:05;15.55;38.44
77052;SHT30;65980;44.898;8.602;2023-11-18T14:16:48;15.54;37.85
77052;SHT30;65980;44.898;8.602;2023-11-18T14:19:56;15.48;37.73
77052;SHT30;65980;44.898;8.602;2023-11-18T14:23:14;15.48;39.42
77052;SHT30;65980;44.898;8.602;2023-11-18T14:26:28;15.35;39.97
77052;SHT30;65980;44.898;8.602;2023-11-18T14:29:51;15.31;40.92
77052;SHT30;65980;44.898;8.602;2023-11-18T14:32:55;15.34;39.28
77052;SHT30;65980;44.898;8.602;2023-11-18T14:36:04;15.28;40.39
77052;SHT30;65980;44.898;8.602;2023-11-18T14:39:10;15.24;42.04
77052;SHT30;65980;44.898;8.602;2023-11-18T14:42:18;15.27;40.42
77052;SHT30;65980;44.898;8.602;2023-11-18T14:45:36;15.30;41.53
77052;SHT30;65980;44.898;8.602;2023-11-18T14:48:45;15.27;42.08
77052;SHT30;65980;44.898;8.602;2023-11-18T14:52:02;15.49;38.77
77052;SHT30;65980;44.898;8.602;2023-11-18T14:55:11;15.59;40.06
77052;SHT30;65980;44.898;8.602;2023-11-18T14:58:17;15.51;40.26
77052;SHT30;65980;44.898;8.602;2023-11-18T15:01:27;15.28;42.76
77052;SHT30;65980;44.898;8.602;2023-11-18T15:04:41;15.14;42.22
77052;SHT30;65980;44.898;8.602;2023-11-18T15:07:57;15.07;43.16
77052;SHT30;65980;44.898;8.602;2023-11-18T15:11:07;14.87;44.68
77052;SHT30;65980;44.898;8.602;2023-11-18T15:14:22;14.84;41.06
77052;SHT30;65980;44.898;8.602;2023-11-18T15:17:49;14.75;41.04
77052;SHT30;65980;44.898;8.602;2023-11-18T15:20:57;14.68;42.77
77052;SHT30;65980;44.898;8.602;2023-11-18T15:24:05;14.59;44.45
77052;SHT30;65980;44.898;8.602;2023-11-18T15:27:10;14.45;44.56
77052;SHT30;65980;44.898;8.602;2023-11-18T15:30:25;14.28;44.33
77052;SHT30;65980;44.898;8.602;2023-11-18T15:33:30;14.24;44.09
77052;SHT30;65980;44.898;8.602;2023-11-18T15:36:41;14.10;46.03
77052;SHT30;65980;44.898;8.602;2023-11-18T15:39:59;13.91;46.15
77052;SHT30;65980;44.898;8.602;2023-11-18T15:43:07;13.83;45.67
77052;SHT30;65980;44.898;8.602;2023-11-18T15:46:20;13.72;45.66
77052;SHT30;65980;44.898;8.602;2023-11-18T15:49:26;13.61;49.11
77052;SHT30;65980;44.898;8.602;2023-11-18T15:52:34;13.48;48.16
77052;SHT30;65980;44.898;8.602;2023-11-18T15:55:39;13.37;48.66
77052;SHT30;65980;44.898;8.602;2023-11-18T15:59:18;13.18;50.20
77052;SHT30;65980;44.898;8.602;2023-11-18T16:02:52;13.15;50.88
77052;SHT30;65980;44.898;8.602;2023-11-18T16:05:59;12.82;50.61
77052;SHT30;65980;44.898;8.602;2023-11-18T16:09:04;12.76;50.97
77052;SHT30;65980;44.898;8.602;2023-11-18T16:12:10;12.77;50.87
77052;SHT30;65980;44.898;8.602;2023-11-18T16:15:23;12.82;50.61
77052;SHT30;65980;44.898;8.602;2023-11-18T16:18:32;12.66;51.89
77052;SHT30;65980;44.898;8.602;2023-11-18T16:21:39;12.44;52.48
77052;SHT30;65980;44.898;8.602;2023-11-18T16:28:58;12.24;54.11
77052;SHT30;65980;44.898;8.602;2023-11-18T16:32:05;12.01;57.38
77052;SHT30;65980;44.898;8.602;2023-11-18T16:35:10;12.05;57.76
77052;SHT30;65980;44.898;8.602;2023-11-18T16:38:30;11.98;57.31
77052;SHT30;65980;44.898;8.602;2023-11-18T16:41:39;11.97;55.13
77052;SHT30;65980;44.898;8.602;2023-11-18T16:44:56;11.75;56.19
77052;SHT30;65980;44.898;8.602;2023-11-18T16:48:10;11.51;58.28
77052;SHT30;65980;44.898;8.602;2023-11-18T16:51:29;11.56;56.39
77052;SHT30;65980;44.898;8.602;2023-11-18T16:54:44;11.49;56.82
77052;SHT30;65980;44.898;8.602;2023-11-18T16:58:21;11.25;58.93
77052;SHT30;65980;44.898;8.602;2023-11-18T17:01:25;11.20;60.81
77052;SHT30;65980;44.898;8.602;2023-11-18T17:05:05;11.24;58.92
77052;SHT30;65980;44.898;8.602;2023-11-18T17:08:19;10.59;61.06
77052;SHT30;65980;44.898;8.602;2023-11-18T17:11:37;10.63;60.48
77052;SHT30;65980;44.898;8.602;2023-11-18T17:14:53;10.87;61.87
77052;SHT30;65980;44.898;8.602;2023-11-18T17:17:59;10.87;61.34
77052;SHT30;65980;44.898;8.602;2023-11-18T17:21:22;10.92;61.16
77052;SHT30;65980;44.898;8.602;2023-11-18T17:24:47;10.93;62.00
77052;SHT30;65980;44.898;8.602;2023-11-18T17:28:40;10.99;61.93
77052;SHT30;65980;44.898;8.602;2023-11-18T17:31:48;11.03;60.40
77052;SHT30;65980;44.898;8.602;2023-11-18T17:34:55;11.04;61.10
77052;SHT30;65980;44.898;8.602;2023-11-18T17:38:01;11.07;60.36
77052;SHT30;65980;44.898;8.602;2023-11-18T17:41:06;10.99;60.12
77052;SHT30;65980;44.898;8.602;2023-11-18T17:44:12;10.77;61.45
77052;SHT30;65980;44.898;8.602;2023-11-18T17:47:17;10.63;61.02
77052;SHT30;65980;44.898;8.602;2023-11-18T17:50:37;10.39;62.55
77052;SHT30;65980;44.898;8.602;2023-11-18T17:53:43;10.46;63.00
77052;SHT30;65980;44.898;8.602;2023-11-18T17:57:13;10.50;63.68
77052;SHT30;65980;44.898;8.602;2023-11-18T18:00:21;10.58;63.43
77052;SHT30;65980;44.898;8.602;2023-11-18T18:03:49;10.63;61.37
77052;SHT30;65980;44.898;8.602;2023-11-18T18:07:01;10.69;63.68
77052;SHT30;65980;44.898;8.602;2023-11-18T18:10:06;10.66;62.66
77052;SHT30;65980;44.898;8.602;2023-11-18T18:13:45;10.60;64.53
77052;SHT30;65980;44.898;8.602;2023-11-18T18:16:53;10.63;64.61
77052;SHT30;65980;44.898;8.602;2023-11-18T18:20:09;10.62;61.75
77052;SHT30;65980;44.898;8.602;2023-11-18T18:23:21;10.53;63.00
77052;SHT30;65980;44.898;8.602;2023-11-18T18:26:51;10.41;62.43
77052;SHT30;65980;44.898;8.602;2023-11-18T18:30:16;10.30;62.81
77052;SHT30;65980;44.898;8.602;2023-11-18T18:33:52;10.20;65.05
77052;SHT30;65980;44.898;8.602;2023-11-18T18:36:59;10.05;65.18
77052;SHT30;65980;44.898;8.602;2023-11-18T18:40:06;9.63;66.55
77052;SHT30;65980;44.898;8.602;2023-11-18T18:43:11;9.25;67.67
77052;SHT30;65980;44.898;8.602;2023-11-18T18:46:18;9.43;67.40
77052;SHT30;65980;44.898;8.602;2023-11-18T18:49:29;9.36;67.37
77052;SHT30;65980;44.898;8.602;2023-11-18T18:52:40;9.28;67.41
77052;SHT30;65980;44.898;8.602;2023-11-18T18:55:51;9.38;67.10
77052;SHT30;65980;44.898;8.602;2023-11-18T18:59:10;9.39;67.25
77052;SHT30;65980;44.898;8.602;2023-11-18T19:02:22;9.53;66.03
77052;SHT30;65980;44.898;8.602;2023-11-18T19:05:30;9.46;66.02
77052;SHT30;65980;44.898;8.602;2023-11-18T19:09:07;9.50;65.34
77052;SHT30;65980;44.898;8.602;2023-11-18T19:13:07;9.58;64.84
77052;SHT30;65980;44.898;8.602;2023-11-18T19:16:12;9.56;66.09
77052;SHT30;65980;44.898;8.602;2023-11-18T19:19:21;9.42;66.47
77052;SHT30;65980;44.898;8.602;2023-11-18T19:22:41;9.39;66.24
77052;SHT30;65980;44.898;8.602;2023-11-18T19:25:52;9.48;65.74
77052;SHT30;65980;44.898;8.602;2023-11-18T19:34:20;9.69;62.50
77052;SHT30;65980;44.898;8.602;2023-11-18T19:37:35;9.70;62.18
77052;SHT30;65980;44.898;8.602;2023-11-18T19:41:08;9.63;62.27
77052;SHT30;65980;44.898;8.602;2023-11-18T19:44:41;9.53;63.13
77052;SHT30;65980;44.898;8.602;2023-11-18T19:47:45;9.42;63.11
77052;SHT30;65980;44.898;8.602;2023-11-18T19:50:48;9.36;64.78
77052;SHT30;65980;44.898;8.602;2023-11-18T19:54:20;9.25;65.60
77052;SHT30;65980;44.898;8.602;2023-11-18T19:57:52;9.31;64.70
77052;SHT30;65980;44.898;8.602;2023-11-18T20:01:05;9.04;64.88
77052;SHT30;65980;44.898;8.602;2023-11-18T20:04:10;9.07;63.66
77052;SHT30;65980;44.898;8.602;2023-11-18T20:11:26;9.18;64.08
77052;SHT30;65980;44.898;8.602;2023-11-18T20:15:03;9.20;64.50
77052;SHT30;65980;44.898;8.602;2023-11-18T20:18:17;8.97;64.53
77052;SHT30;65980;44.898;8.602;2023-11-18T20:21:55;8.94;65.59
77052;SHT30;65980;44.898;8.602;2023-11-18T20:28:47;8.27;66.34
77052;SHT30;65980;44.898;8.602;2023-11-18T20:32:05;8.37;67.45
77052;SHT30;65980;44.898;8.602;2023-11-18T20:35:10;8.39;67.66
77052;SHT30;65980;44.898;8.602;2023-11-18T20:38:15;8.50;66.63
77052;SHT30;65980;44.898;8.602;2023-11-18T20:41:20;8.21;68.32
77052;SHT30;65980;44.898;8.602;2023-11-18T20:44:25;8.17;68.78
77052;SHT30;65980;44.898;8.602;2023-11-18T20:47:30;8.25;69.03
77052;SHT30;65980;44.898;8.602;2023-11-18T20:50:37;8.48;67.82
77052;SHT30;65980;44.898;8.602;2023-11-18T20:53:45;8.56;66.95
77052;SHT30;65980;44.898;8.602;2023-11-18T20:56:49;8.21;68.47
77052;SHT30;65980;44.898;8.602;2023-11-18T21:00:08;8.27;69.33
77052;SHT30;65980;44.898;8.602;2023-11-18T21:03:27;8.41;68.41
77052;SHT30;65980;44.898;8.602;2023-11-18T21:06:37;8.41;68.56
77052;SHT30;65980;44.898;8.602;2023-11-18T21:09:46;8.44;68.18
77052;SHT30;65980;44.898;8.602;2023-11-18T21:12:59;8.48;67.95
77052;SHT30;65980;44.898;8.602;2023-11-18T21:16:15;8.35;67.83